createdAt,value
2018-12-13T09:06:46.625Z,1010.86
2018-12-13T09:07:46.611Z,1010.95
2018-12-13T09:08:46.842Z,1010.88
2018-12-13T09:09:46.592Z,1010.93
2018-12-13T09:10:46.590Z,1010.88
2018-12-13T09:11:46.583Z,1010.90
2018-12-13T09:12:46.555Z,1010.88
2018-12-13T09:13:46.540Z,1010.96
2018-12-13T09:14:46.542Z,1010.93
2018-12-13T09:15:46.555Z,1010.90
2018-12-13T09:16:46.523Z,1010.96
2018-12-13T09:17:46.551Z,1010.94
2018-12-13T09:18:46.503Z,1010.92
2018-12-13T09:19:46.481Z,1010.94
2018-12-13T09:20:46.474Z,1010.94
2018-12-13T09:21:46.465Z,1010.91
2018-12-13T09:22:46.451Z,1010.87
2018-12-13T09:23:46.434Z,1010.88
2018-12-13T09:24:46.435Z,1010.91
2018-12-13T09:25:46.489Z,1010.88
2018-12-13T09:26:46.398Z,1010.88
2018-12-13T09:27:46.386Z,1010.91
2018-12-13T09:28:46.370Z,1010.94
2018-12-13T09:29:46.363Z,1010.95
2018-12-13T09:30:46.354Z,1010.95
2018-12-13T09:31:46.351Z,1010.97
2018-12-13T09:32:46.341Z,1010.96
2018-12-13T09:33:46.341Z,1010.94
2018-12-13T09:34:46.569Z,1010.99
2018-12-13T09:35:46.302Z,1011.01
2018-12-13T09:36:46.286Z,1010.96
2018-12-13T09:37:47.720Z,1010.99
2018-12-13T09:38:46.268Z,1010.97
2018-12-13T09:39:46.255Z,1010.97
2018-12-13T09:40:46.240Z,1011.01
2018-12-13T09:41:46.238Z,1010.97
2018-12-13T09:42:46.211Z,1011.00
2018-12-13T09:43:46.210Z,1011.01
2018-12-13T09:44:46.211Z,1010.93
2018-12-13T09:45:47.614Z,1010.98
2018-12-13T09:46:46.212Z,1011.01
2018-12-13T09:47:46.578Z,1010.99
2018-12-13T09:48:46.176Z,1010.94
2018-12-13T09:49:46.145Z,1010.99
2018-12-13T09:50:46.142Z,1011.02
2018-12-13T09:51:46.137Z,1010.97
2018-12-13T09:52:46.166Z,1010.96
2018-12-13T09:53:46.091Z,1010.92
2018-12-13T09:54:46.079Z,1010.98
2018-12-13T09:55:46.072Z,1010.98
2018-12-13T09:56:46.185Z,1010.94
2018-12-13T09:57:46.180Z,1011.00
2018-12-13T09:58:46.127Z,1011.00
2018-12-13T09:59:46.075Z,1010.89
2018-12-13T10:00:50.109Z,1010.92
2018-12-13T10:01:46.078Z,1010.86
2018-12-13T10:02:46.055Z,1010.83
2018-12-13T10:03:46.024Z,1010.89
2018-12-13T10:04:46.027Z,1010.88
2018-12-13T10:05:46.022Z,1010.86
2018-12-13T10:06:46.515Z,1010.81
2018-12-13T10:07:45.979Z,1010.83
2018-12-13T10:08:46.434Z,1010.80
2018-12-13T10:09:45.985Z,1010.79
2018-12-13T10:10:46.134Z,1010.79
2018-12-13T10:11:45.911Z,1010.79
2018-12-13T10:12:45.974Z,1010.78
2018-12-13T10:13:46.120Z,1010.76
2018-12-13T10:14:45.901Z,1010.76
2018-12-13T10:15:45.893Z,1010.76
2018-12-13T10:16:45.872Z,1010.68
2018-12-13T10:17:46.061Z,1010.70
2018-12-13T10:18:45.853Z,1010.69
2018-12-13T10:19:45.847Z,1010.67
2018-12-13T10:20:46.080Z,1010.70
2018-12-13T10:21:45.767Z,1010.73
2018-12-13T10:22:45.828Z,1010.76
2018-12-13T10:23:51.314Z,1010.65
2018-12-13T10:24:45.996Z,1010.67
2018-12-13T10:25:45.726Z,1010.59
2018-12-13T10:26:45.753Z,1010.60
2018-12-13T10:27:45.713Z,1010.57
2018-12-13T10:28:45.700Z,1010.66
2018-12-13T10:29:45.686Z,1010.62
2018-12-13T10:30:45.689Z,1010.59
2018-12-13T10:31:45.673Z,1010.60
2018-12-13T10:32:45.649Z,1010.60
2018-12-13T10:33:45.645Z,1010.60
2018-12-13T10:34:45.631Z,1010.57
2018-12-13T10:35:46.676Z,1010.51
2018-12-13T10:36:46.194Z,1010.59
2018-12-13T10:37:45.841Z,1010.53
2018-12-13T10:38:45.589Z,1010.48
2018-12-13T10:39:45.576Z,1010.53
2018-12-13T10:40:45.593Z,1010.50
2018-12-13T10:41:45.807Z,1010.50
2018-12-13T10:42:45.794Z,1010.50
2018-12-13T10:43:45.768Z,1010.48
2018-12-13T10:44:45.522Z,1010.43
2018-12-13T10:45:45.494Z,1010.42
2018-12-13T10:46:45.491Z,1010.39
2018-12-13T10:47:45.479Z,1010.36
2018-12-13T10:48:45.460Z,1010.41
2018-12-13T10:49:45.454Z,1010.38
2018-12-13T10:50:45.459Z,1010.28
2018-12-13T10:51:45.446Z,1010.34
2018-12-13T10:52:45.419Z,1010.31
2018-12-13T10:53:45.414Z,1010.31
2018-12-13T10:54:45.651Z,1010.23
2018-12-13T10:55:45.455Z,1010.30
2018-12-13T10:56:45.370Z,1010.33
2018-12-13T10:57:45.467Z,1010.31
2018-12-13T10:58:45.347Z,1010.32
2018-12-13T10:59:45.339Z,1010.28
2018-12-13T11:00:45.588Z,1010.28
2018-12-13T11:01:45.324Z,1010.27
2018-12-13T11:02:45.408Z,1010.31
2018-12-13T11:03:45.344Z,1010.34
2018-12-13T11:04:45.278Z,1010.33
2018-12-13T11:05:45.289Z,1010.29
2018-12-13T11:06:45.257Z,1010.30
2018-12-13T11:07:45.503Z,1010.29
2018-12-13T11:08:45.237Z,1010.31
2018-12-13T11:09:45.242Z,1010.30
2018-12-13T11:10:45.213Z,1010.25
2018-12-13T11:11:45.212Z,1010.27
2018-12-13T11:12:45.220Z,1010.27
2018-12-13T11:13:45.185Z,1010.26
2018-12-13T11:14:45.179Z,1010.26
2018-12-13T11:15:45.162Z,1010.15
2018-12-13T11:16:45.227Z,1010.15
2018-12-13T11:17:45.229Z,1010.19
2018-12-13T11:18:45.395Z,1010.18
2018-12-13T11:19:46.115Z,1010.17
2018-12-13T11:20:45.127Z,1010.17
2018-12-13T11:21:45.112Z,1010.17
2018-12-13T11:22:45.082Z,1010.12
2018-12-13T11:23:45.088Z,1010.17
2018-12-13T11:24:45.107Z,1010.16
2018-12-13T11:25:45.053Z,1010.15
2018-12-13T11:26:45.056Z,1010.18
2018-12-13T11:27:45.042Z,1010.17
2018-12-13T11:28:45.027Z,1010.16
2018-12-13T11:29:48.242Z,1010.14
2018-12-13T11:30:45.019Z,1010.13
2018-12-13T11:31:44.977Z,1010.12
2018-12-13T11:32:44.972Z,1010.13
2018-12-13T11:33:45.072Z,1010.11
2018-12-13T11:34:44.936Z,1010.09
2018-12-13T11:35:44.924Z,1010.03
2018-12-13T11:36:44.936Z,1010.07
2018-12-13T11:37:44.914Z,1009.99
2018-12-13T11:38:44.936Z,1009.99
2018-12-13T11:39:45.756Z,1009.96
2018-12-13T11:40:45.129Z,1010.01
2018-12-13T11:41:44.976Z,1009.99
2018-12-13T11:42:44.904Z,1009.96
2018-12-13T11:43:44.866Z,1010.00
2018-12-13T11:44:44.833Z,1009.96
2018-12-13T11:45:44.816Z,1009.93
2018-12-13T11:46:44.845Z,1009.86
2018-12-13T11:47:44.800Z,1009.89
2018-12-13T11:48:45.782Z,1009.89
2018-12-13T11:49:44.769Z,1009.90
2018-12-13T11:50:44.779Z,1009.82
2018-12-13T11:51:44.748Z,1009.82
2018-12-13T11:52:44.732Z,1009.80
2018-12-13T11:53:44.734Z,1009.80
2018-12-13T11:54:44.734Z,1009.75
2018-12-13T11:55:44.729Z,1009.76
2018-12-13T11:56:44.692Z,1009.76
2018-12-13T11:57:44.681Z,1009.74
2018-12-13T11:58:44.674Z,1009.70
2018-12-13T11:59:44.662Z,1009.69
2018-12-13T12:00:44.854Z,1009.66
2018-12-13T12:01:44.632Z,1009.66
2018-12-13T12:02:44.689Z,1009.64
2018-12-13T12:03:44.618Z,1009.63
2018-12-13T12:04:44.622Z,1009.61
2018-12-13T12:05:44.608Z,1009.63
2018-12-13T12:06:44.590Z,1009.62
2018-12-13T12:07:44.570Z,1009.62
2018-12-13T12:08:44.810Z,1009.63
2018-12-13T12:09:44.818Z,1009.62
2018-12-13T12:10:44.528Z,1009.65
2018-12-13T12:11:44.551Z,1009.64
2018-12-13T12:12:44.507Z,1009.63
2018-12-13T12:13:44.519Z,1009.62
2018-12-13T12:14:44.495Z,1009.60
2018-12-13T12:15:44.469Z,1009.56
2018-12-13T12:16:44.712Z,1009.58
2018-12-13T12:17:44.466Z,1009.57
2018-12-13T12:18:44.464Z,1009.57
2018-12-13T12:19:44.444Z,1009.53
2018-12-13T12:20:44.418Z,1009.52
2018-12-13T12:21:44.417Z,1009.49
2018-12-13T12:22:44.405Z,1009.48
2018-12-13T12:23:46.204Z,1009.46
2018-12-13T12:24:44.369Z,1009.46
2018-12-13T12:25:44.356Z,1009.41
2018-12-13T12:26:44.352Z,1009.38
2018-12-13T12:27:44.607Z,1009.40
2018-12-13T12:28:44.408Z,1009.41
2018-12-13T12:29:44.324Z,1009.40
2018-12-13T12:30:44.333Z,1009.41
2018-12-13T12:31:44.319Z,1009.43
2018-12-13T12:32:44.297Z,1009.47
2018-12-13T12:33:44.287Z,1009.44
2018-12-13T12:34:44.266Z,1009.45
2018-12-13T12:35:44.268Z,1009.35
2018-12-13T12:36:44.264Z,1009.29
2018-12-13T12:37:44.230Z,1009.35
2018-12-13T12:38:44.336Z,1009.34
2018-12-13T12:39:44.254Z,1009.40
2018-12-13T12:40:44.192Z,1009.33
2018-12-13T12:41:44.175Z,1009.40
2018-12-13T12:42:44.180Z,1009.40
2018-12-13T12:43:44.186Z,1009.32
2018-12-13T12:44:44.222Z,1009.33
2018-12-13T12:45:44.133Z,1009.33
2018-12-13T12:46:44.116Z,1009.25
2018-12-13T12:47:44.175Z,1009.31
2018-12-13T12:48:44.370Z,1009.31
2018-12-13T12:49:44.089Z,1009.27
2018-12-13T12:50:44.082Z,1009.27
2018-12-13T12:51:44.073Z,1009.23
2018-12-13T12:52:44.050Z,1009.25
2018-12-13T12:53:44.097Z,1009.22
2018-12-13T12:54:44.029Z,1009.22
2018-12-13T12:55:45.425Z,1009.17
2018-12-13T12:56:44.045Z,1009.19
2018-12-13T12:57:43.998Z,1009.15
2018-12-13T12:58:44.002Z,1009.15
2018-12-13T12:59:44.028Z,1009.14
2018-12-13T13:00:43.994Z,1009.09
2018-12-13T13:01:43.955Z,1009.07
2018-12-13T13:02:43.951Z,1009.07
2018-12-13T13:03:44.185Z,1009.08
2018-12-13T13:04:43.915Z,1009.07
2018-12-13T13:05:43.928Z,1009.12
2018-12-13T13:06:43.945Z,1009.11
2018-12-13T13:07:44.143Z,1009.00
2018-12-13T13:08:43.926Z,1009.03
2018-12-13T13:09:44.107Z,1009.06
2018-12-13T13:10:44.406Z,1009.07
2018-12-13T13:11:43.844Z,1009.06
2018-12-13T13:12:43.850Z,1009.07
2018-12-13T13:13:43.877Z,1009.03
2018-12-13T13:14:44.076Z,1009.05
2018-12-13T13:15:43.814Z,1009.03
2018-12-13T13:16:43.786Z,1009.07
2018-12-13T13:17:43.788Z,1009.05
2018-12-13T13:18:45.186Z,1009.01
2018-12-13T13:19:43.750Z,1009.07
2018-12-13T13:20:45.103Z,1009.03
2018-12-13T13:21:43.719Z,1009.02
2018-12-13T13:22:43.774Z,1009.01
2018-12-13T13:23:43.958Z,1008.98
2018-12-13T13:24:43.693Z,1009.02
2018-12-13T13:25:43.682Z,1009.03
2018-12-13T13:26:43.662Z,1009.01
2018-12-13T13:27:43.672Z,1008.99
2018-12-13T13:28:43.677Z,1009.00
2018-12-13T13:29:43.660Z,1008.97
2018-12-13T13:30:43.877Z,1009.01
2018-12-13T13:31:43.614Z,1009.02
2018-12-13T13:32:43.611Z,1009.05
2018-12-13T13:33:43.588Z,1009.03
2018-12-13T13:34:43.597Z,1009.03
2018-12-13T13:35:43.646Z,1009.04
2018-12-13T13:36:43.579Z,1009.03
2018-12-13T13:37:43.573Z,1009.03
2018-12-13T13:38:43.585Z,1009.10
2018-12-13T13:39:43.671Z,1009.02
2018-12-13T13:40:43.565Z,1009.02
2018-12-13T13:41:44.736Z,1008.98
2018-12-13T13:42:43.546Z,1009.01
2018-12-13T13:43:43.530Z,1008.98
2018-12-13T13:44:43.589Z,1009.01
2018-12-13T13:45:43.530Z,1009.01
2018-12-13T13:46:43.475Z,1009.06
2018-12-13T13:47:43.817Z,1009.01
2018-12-13T13:48:43.418Z,1008.98
2018-12-13T13:49:43.489Z,1009.07
2018-12-13T13:50:43.427Z,1009.04
2018-12-13T13:51:43.388Z,1008.98
2018-12-13T13:52:43.367Z,1009.05
2018-12-13T13:53:43.416Z,1009.09
2018-12-13T13:54:44.985Z,1009.04
2018-12-13T13:55:43.354Z,1009.07
2018-12-13T13:56:43.578Z,1009.04
2018-12-13T13:57:43.343Z,1009.07
2018-12-13T13:58:43.342Z,1009.00
2018-12-13T13:59:45.013Z,1009.04
2018-12-13T14:00:43.296Z,1009.00
2018-12-13T14:01:43.264Z,1009.03
2018-12-13T14:02:43.309Z,1008.99
2018-12-13T14:03:43.287Z,1008.97
2018-12-13T14:04:43.327Z,1008.99
2018-12-13T14:05:43.260Z,1008.95
2018-12-13T14:06:44.601Z,1008.90
2018-12-13T14:07:43.259Z,1008.99
2018-12-13T14:08:43.245Z,1009.01
2018-12-13T14:09:43.256Z,1008.95
2018-12-13T14:10:43.258Z,1008.93
2018-12-13T14:11:43.221Z,1008.97
2018-12-13T14:12:43.223Z,1008.94
2018-12-13T14:13:44.822Z,1008.90
2018-12-13T14:14:43.256Z,1008.88
2018-12-13T14:15:43.167Z,1008.92
2018-12-13T14:16:43.165Z,1008.94
2018-12-13T14:17:43.404Z,1008.94
2018-12-13T14:18:45.418Z,1008.96
2018-12-13T14:19:43.402Z,1009.02
2018-12-13T14:20:43.111Z,1009.02
2018-12-13T14:21:43.120Z,1009.06
2018-12-13T14:22:43.090Z,1009.09
2018-12-13T14:23:43.305Z,1009.06
2018-12-13T14:24:43.091Z,1009.07
2018-12-13T14:25:43.008Z,1009.01
2018-12-13T14:26:43.030Z,1009.02
2018-12-13T14:27:43.016Z,1009.04
2018-12-13T14:28:43.002Z,1009.01
2018-12-13T14:29:42.985Z,1009.02
2018-12-13T14:30:42.953Z,1009.05
2018-12-13T14:31:42.969Z,1009.04
2018-12-13T14:32:42.922Z,1009.06
2018-12-13T14:33:42.952Z,1009.09
2018-12-13T14:34:43.142Z,1009.07
2018-12-13T14:35:42.886Z,1009.16
2018-12-13T14:36:42.941Z,1009.15
2018-12-13T14:37:42.876Z,1009.22
2018-12-13T14:38:42.926Z,1009.18
2018-12-13T14:39:44.567Z,1009.20
2018-12-13T14:40:42.859Z,1009.17
2018-12-13T14:41:42.835Z,1009.21
2018-12-13T14:42:42.827Z,1009.18
2018-12-13T14:43:42.788Z,1009.20
2018-12-13T14:44:42.830Z,1009.23
2018-12-13T14:45:42.800Z,1009.23
2018-12-13T14:46:42.757Z,1009.23
2018-12-13T14:47:42.799Z,1009.19
2018-12-13T14:48:42.736Z,1009.23
2018-12-13T14:49:42.779Z,1009.24
2018-12-13T14:50:42.902Z,1009.28
2018-12-13T14:51:43.073Z,1009.20
2018-12-13T14:52:42.741Z,1009.27
2018-12-13T14:53:42.685Z,1009.25
2018-12-13T14:54:42.674Z,1009.33
2018-12-13T14:55:42.660Z,1009.28
2018-12-13T14:56:42.654Z,1009.29
2018-12-13T14:57:42.641Z,1009.32
2018-12-13T14:58:42.879Z,1009.31
2018-12-13T14:59:47.020Z,1009.34
2018-12-13T15:00:42.605Z,1009.29
2018-12-13T15:01:42.729Z,1009.28
2018-12-13T15:02:42.712Z,1009.29
2018-12-13T15:03:43.359Z,1009.31
2018-12-13T15:04:42.578Z,1009.30
2018-12-13T15:05:42.554Z,1009.32
2018-12-13T15:06:42.539Z,1009.33
2018-12-13T15:07:42.517Z,1009.31
2018-12-13T15:08:42.532Z,1009.35
2018-12-13T15:09:42.502Z,1009.33
2018-12-13T15:10:42.482Z,1009.38
2018-12-13T15:11:43.823Z,1009.38
2018-12-13T15:12:42.462Z,1009.33
2018-12-13T15:13:42.457Z,1009.38
2018-12-13T15:14:44.863Z,1009.40
2018-12-13T15:15:42.433Z,1009.42
2018-12-13T15:16:43.392Z,1009.42
2018-12-13T15:17:42.425Z,1009.42
2018-12-13T15:18:42.490Z,1009.39
2018-12-13T15:19:42.639Z,1009.43
2018-12-13T15:20:42.385Z,1009.43
2018-12-13T15:21:42.363Z,1009.44
2018-12-13T15:22:42.341Z,1009.47
2018-12-13T15:23:42.581Z,1009.49
2018-12-13T15:24:42.339Z,1009.47
2018-12-13T15:25:42.324Z,1009.46
2018-12-13T15:26:42.303Z,1009.53
2018-12-13T15:27:42.330Z,1009.56
2018-12-13T15:28:42.299Z,1009.57
2018-12-13T15:29:42.281Z,1009.56
2018-12-13T15:30:42.254Z,1009.60
2018-12-13T15:31:42.251Z,1009.59
2018-12-13T15:32:42.241Z,1009.57
2018-12-13T15:33:42.222Z,1009.65
2018-12-13T15:34:42.215Z,1009.59
2018-12-13T15:35:42.202Z,1009.62
2018-12-13T15:36:42.187Z,1009.66
2018-12-13T15:37:42.468Z,1009.60
2018-12-13T15:38:42.212Z,1009.60
2018-12-13T15:39:42.157Z,1009.52
2018-12-13T15:40:42.188Z,1009.53
2018-12-13T15:41:42.137Z,1009.55
2018-12-13T15:42:42.210Z,1009.49
2018-12-13T15:43:42.242Z,1009.51
2018-12-13T15:44:42.121Z,1009.53
2018-12-13T15:45:42.341Z,1009.52
2018-12-13T15:46:42.090Z,1009.51
2018-12-13T15:47:43.370Z,1009.52
2018-12-13T15:48:42.057Z,1009.54
2018-12-13T15:50:42.032Z,1009.53
2018-12-13T15:52:42.010Z,1009.50
2018-12-13T15:53:42.221Z,1009.56
2018-12-13T15:54:42.240Z,1009.56
2018-12-13T15:55:41.968Z,1009.63
2018-12-13T15:56:41.961Z,1009.62
2018-12-13T16:26:41.703Z,1009.65
2018-12-13T16:27:41.690Z,1009.65
